createdAt,value
2022-09-25T00:00:42.794Z,11.43
2022-09-25T00:03:10.865Z,10.98
2022-09-25T00:05:38.667Z,10.80
2022-09-25T00:08:05.710Z,9.98
2022-09-25T00:10:32.742Z,10.32
2022-09-25T00:12:59.244Z,10.63
2022-09-25T00:15:26.554Z,10.63
2022-09-25T00:17:53.176Z,10.55
2022-09-25T00:20:20.648Z,10.65
2022-09-25T00:22:47.509Z,9.18
2022-09-25T00:25:15.468Z,10.35
2022-09-25T00:27:43.230Z,9.48
2022-09-25T00:30:11.993Z,9.30
2022-09-25T00:32:38.505Z,10.60
2022-09-25T00:35:05.688Z,9.43
2022-09-25T00:37:36.539Z,9.98
2022-09-25T00:40:04.904Z,9.50
2022-09-25T00:42:33.045Z,9.25
2022-09-25T00:45:02.265Z,9.25
2022-09-25T00:47:40.550Z,9.27
2022-09-25T00:50:17.837Z,9.25
2022-09-25T00:52:45.598Z,8.40
2022-09-25T00:55:13.538Z,8.48
2022-09-25T00:57:46.719Z,7.70
2022-09-25T01:00:14.070Z,6.90
2022-09-25T01:02:53.262Z,6.68
2022-09-25T01:05:24.497Z,6.72
2022-09-25T01:07:52.814Z,6.65
2022-09-25T01:10:20.797Z,6.15
2022-09-25T01:12:49.220Z,5.18
2022-09-25T01:15:18.517Z,5.10
2022-09-25T01:17:54.001Z,4.82
2022-09-25T01:20:35.622Z,5.05
2022-09-25T01:23:24.545Z,4.32
2022-09-25T01:26:16.174Z,4.72
2022-09-25T01:29:07.218Z,4.05
2022-09-25T01:31:47.758Z,3.97
2022-09-25T01:34:26.733Z,3.90
2022-09-25T01:37:01.680Z,3.80
2022-09-25T01:42:11.854Z,4.15
2022-09-25T01:44:49.563Z,3.08
2022-09-25T01:47:23.686Z,3.55
2022-09-25T01:49:56.810Z,3.38
2022-09-25T01:52:29.285Z,3.65
2022-09-25T01:55:03.874Z,3.35
2022-09-25T01:57:56.948Z,3.20
2022-09-25T02:00:25.050Z,3.53
2022-09-25T02:03:00.824Z,4.20
2022-09-25T02:05:34.590Z,4.07
2022-09-25T02:08:07.173Z,4.07
2022-09-25T02:10:43.435Z,3.35
2022-09-25T02:13:14.078Z,4.78
2022-09-25T02:15:45.367Z,4.25
2022-09-25T02:18:34.205Z,4.70
2022-09-25T02:21:19.663Z,5.72
2022-09-25T02:23:56.799Z,5.75
2022-09-25T02:26:32.549Z,5.90
2022-09-25T02:28:59.899Z,5.38
2022-09-25T02:31:35.823Z,5.82
2022-09-25T02:34:09.300Z,5.90
2022-09-25T02:36:38.624Z,5.80
2022-09-25T02:39:08.532Z,4.80
2022-09-25T02:41:58.069Z,5.28
2022-09-25T02:44:30.953Z,4.95
2022-09-25T02:47:19.644Z,4.75
2022-09-25T02:50:08.105Z,5.30
2022-09-25T02:52:45.264Z,4.50
2022-09-25T02:55:23.557Z,4.97
2022-09-25T02:58:15.574Z,5.38
2022-09-25T03:00:46.869Z,4.43
2022-09-25T03:03:16.782Z,4.00
2022-09-25T03:05:44.276Z,4.00
2022-09-25T03:08:29.574Z,3.70
2022-09-25T03:13:34.123Z,3.70
2022-09-25T03:16:02.908Z,3.20
2022-09-25T03:18:30.897Z,3.00
2022-09-25T03:20:58.178Z,3.72
2022-09-25T03:23:25.034Z,3.10
2022-09-25T03:25:54.786Z,3.38
2022-09-25T03:28:22.606Z,3.40
2022-09-25T03:30:58.297Z,3.00
2022-09-25T03:33:25.570Z,3.25
2022-09-25T03:36:02.023Z,3.05
2022-09-25T03:38:28.499Z,2.95
2022-09-25T03:40:54.878Z,3.30
2022-09-25T03:43:21.346Z,2.97
2022-09-25T03:45:47.725Z,2.80
2022-09-25T03:48:14.566Z,3.40
2022-09-25T03:50:41.981Z,2.45
2022-09-25T03:53:08.425Z,2.67
2022-09-25T03:55:34.833Z,2.83
2022-09-25T03:58:01.432Z,2.17
2022-09-25T04:00:27.757Z,2.33
2022-09-25T04:02:54.146Z,2.38
2022-09-25T04:05:21.340Z,2.03
2022-09-25T04:07:48.101Z,3.63
2022-09-25T04:10:14.740Z,2.45
2022-09-25T04:12:43.644Z,3.15
2022-09-25T04:15:10.360Z,2.20
2022-09-25T04:17:36.777Z,2.20
2022-09-25T04:20:03.537Z,2.35
2022-09-25T04:22:29.878Z,2.40
2022-09-25T04:24:57.111Z,2.17
2022-09-25T04:27:23.634Z,2.60
2022-09-25T04:29:50.163Z,2.33
2022-09-25T04:32:35.567Z,2.17
2022-09-25T04:37:28.911Z,2.38
2022-09-25T04:39:56.396Z,2.22
2022-09-25T04:42:24.720Z,1.98
2022-09-25T04:44:55.491Z,2.63
2022-09-25T04:47:24.081Z,2.33
2022-09-25T04:49:51.130Z,2.20
2022-09-25T04:52:18.927Z,2.67
2022-09-25T04:54:45.804Z,2.10
2022-09-25T04:57:39.141Z,2.35
2022-09-25T05:00:08.314Z,2.97
2022-09-25T05:02:34.856Z,2.20
2022-09-25T05:05:01.305Z,2.50
2022-09-25T05:07:27.694Z,2.00
2022-09-25T05:09:54.019Z,2.00
2022-09-25T05:12:20.896Z,3.35
2022-09-25T05:14:47.488Z,2.80
2022-09-25T05:17:13.891Z,2.50
2022-09-25T05:19:40.758Z,3.38
2022-09-25T05:22:07.210Z,2.63
2022-09-25T05:24:33.643Z,2.50
2022-09-25T05:27:00.087Z,2.42
2022-09-25T05:29:26.442Z,2.58
2022-09-25T05:31:53.086Z,2.30
2022-09-25T05:34:19.491Z,2.95
2022-09-25T05:36:45.922Z,3.13
2022-09-25T05:39:14.621Z,2.33
2022-09-25T05:41:41.249Z,2.33
2022-09-25T05:44:09.653Z,2.72
2022-09-25T05:46:37.195Z,2.60
2022-09-25T05:49:04.482Z,2.00
2022-09-25T05:51:32.354Z,2.22
2022-09-25T05:54:00.209Z,2.15
2022-09-25T05:56:26.785Z,3.17
2022-09-25T05:58:54.994Z,2.20
2022-09-25T06:01:21.694Z,2.45
2022-09-25T06:03:48.109Z,2.38
2022-09-25T06:06:14.437Z,2.35
2022-09-25T06:08:40.867Z,3.03
2022-09-25T06:11:08.060Z,2.95
2022-09-25T06:13:36.901Z,2.72
2022-09-25T06:16:05.418Z,2.63
2022-09-25T06:18:33.146Z,2.50
2022-09-25T06:21:02.489Z,2.10
2022-09-25T06:23:29.331Z,2.00
2022-09-25T06:26:02.926Z,2.30
2022-09-25T06:28:29.942Z,2.22
2022-09-25T06:30:59.148Z,2.33
2022-09-25T06:33:25.619Z,2.30
2022-09-25T06:35:52.000Z,2.35
2022-09-25T06:38:18.641Z,2.28
2022-09-25T06:40:45.484Z,1.70
2022-09-25T06:43:14.388Z,2.00
2022-09-25T06:45:42.199Z,2.08
2022-09-25T06:48:13.738Z,2.00
2022-09-25T06:50:41.869Z,2.33
2022-09-25T06:53:09.531Z,1.80
2022-09-25T06:55:35.907Z,1.50
2022-09-25T06:58:02.547Z,1.80
2022-09-25T07:00:28.966Z,1.60
2022-09-25T07:03:16.174Z,1.73
2022-09-25T07:05:44.415Z,1.80
2022-09-25T07:08:21.169Z,1.63
2022-09-25T07:10:52.901Z,1.60
2022-09-25T07:13:27.582Z,2.05
2022-09-25T07:16:16.548Z,1.80
2022-09-25T07:18:43.957Z,1.55
2022-09-25T07:21:15.905Z,1.77
2022-09-25T07:23:42.723Z,1.88
2022-09-25T07:26:13.206Z,1.70
2022-09-25T07:28:40.913Z,2.22
2022-09-25T07:31:19.204Z,1.88
2022-09-25T07:33:46.476Z,1.40
2022-09-25T07:36:14.064Z,1.42
2022-09-25T07:38:41.175Z,1.90
2022-09-25T07:41:10.584Z,1.60
2022-09-25T07:43:40.092Z,1.88
2022-09-25T07:46:06.798Z,1.30
2022-09-25T07:48:33.465Z,2.00
2022-09-25T07:51:05.132Z,1.70
2022-09-25T07:53:32.026Z,1.77
2022-09-25T07:56:03.642Z,2.38
2022-09-25T07:58:32.910Z,1.52
2022-09-25T08:01:01.108Z,1.80
2022-09-25T08:03:28.931Z,2.05
2022-09-25T08:06:06.454Z,1.75
2022-09-25T08:08:36.093Z,1.70
2022-09-25T08:11:06.625Z,1.58
2022-09-25T08:13:34.280Z,1.70
2022-09-25T08:16:05.692Z,1.40
2022-09-25T08:18:32.477Z,1.70
2022-09-25T08:21:03.114Z,1.35
2022-09-25T08:23:30.323Z,2.05
2022-09-25T08:25:56.905Z,1.95
2022-09-25T08:28:23.620Z,1.40
2022-09-25T08:30:50.673Z,1.80
2022-09-25T08:33:17.079Z,1.60
2022-09-25T08:35:44.002Z,1.40
2022-09-25T08:38:12.266Z,1.65
2022-09-25T08:40:49.596Z,1.33
2022-09-25T08:43:21.663Z,1.70
2022-09-25T08:46:08.985Z,1.77
2022-09-25T08:49:05.877Z,1.80
2022-09-25T08:51:47.066Z,1.20
2022-09-25T08:54:22.955Z,1.33
2022-09-25T08:57:10.930Z,1.30
2022-09-25T08:59:42.594Z,1.25
2022-09-25T09:02:38.560Z,1.30
2022-09-25T09:05:14.415Z,1.20
2022-09-25T09:07:46.270Z,1.20
2022-09-25T09:10:35.916Z,1.05
2022-09-25T09:13:25.500Z,1.35
2022-09-25T09:16:29.224Z,1.17
2022-09-25T09:18:56.595Z,1.45
2022-09-25T09:21:33.910Z,1.35
2022-09-25T09:24:27.858Z,1.63
2022-09-25T09:27:12.463Z,1.02
2022-09-25T09:30:06.012Z,1.50
2022-09-25T09:32:38.611Z,1.05
2022-09-25T09:35:32.794Z,1.05
2022-09-25T09:38:28.272Z,1.10
2022-09-25T09:41:12.906Z,1.02
2022-09-25T09:44:02.508Z,1.30
2022-09-25T09:46:40.254Z,0.80
2022-09-25T09:49:21.435Z,1.17
2022-09-25T09:51:58.086Z,1.20
2022-09-25T09:54:36.592Z,0.77
2022-09-25T09:57:13.320Z,1.05
2022-09-25T10:00:00.576Z,1.52
2022-09-25T10:02:38.085Z,1.02
2022-09-25T10:05:12.815Z,1.08
2022-09-25T10:10:14.190Z,0.90
2022-09-25T10:12:50.838Z,0.95
2022-09-25T10:15:42.032Z,0.73
2022-09-25T10:18:09.121Z,0.70
2022-09-25T10:20:47.391Z,0.85
2022-09-25T10:23:27.707Z,0.90
2022-09-25T10:25:56.229Z,0.70
2022-09-25T10:28:29.524Z,0.90
2022-09-25T10:30:58.049Z,0.75
2022-09-25T10:33:27.385Z,1.15
2022-09-25T10:35:55.013Z,0.90
2022-09-25T10:38:29.453Z,1.23
2022-09-25T10:41:14.136Z,1.02
2022-09-25T10:43:52.962Z,0.98
2022-09-25T10:46:48.216Z,1.10
2022-09-25T10:49:37.096Z,0.75
2022-09-25T10:52:09.232Z,0.80
2022-09-25T10:54:41.904Z,0.80
2022-09-25T10:57:35.192Z,0.93
2022-09-25T11:00:04.424Z,0.98
2022-09-25T11:02:39.102Z,0.82
2022-09-25T11:05:08.959Z,0.75
2022-09-25T11:07:35.411Z,0.60
2022-09-25T11:10:01.843Z,0.88
2022-09-25T11:12:31.579Z,0.70
2022-09-25T11:15:05.621Z,0.70
2022-09-25T11:17:41.003Z,0.70
2022-09-25T11:20:17.619Z,0.70
2022-09-25T11:23:03.553Z,1.08
2022-09-25T11:25:35.668Z,0.65
2022-09-25T11:28:20.214Z,0.93
2022-09-25T11:30:55.911Z,0.95
2022-09-25T11:33:36.385Z,1.02
2022-09-25T11:36:17.385Z,1.20
2022-09-25T11:39:08.975Z,1.00
2022-09-25T11:41:43.795Z,0.55
2022-09-25T11:44:32.684Z,0.93
2022-09-25T11:47:21.328Z,0.63
2022-09-25T11:49:51.908Z,1.05
2022-09-25T11:53:03.308Z,0.50
2022-09-25T11:56:03.173Z,0.80
2022-09-25T11:58:35.377Z,0.98
2022-09-25T12:01:13.470Z,0.93
2022-09-25T12:03:51.790Z,1.48
2022-09-25T12:06:48.937Z,0.80
2022-09-25T12:09:57.104Z,1.00
2022-09-25T12:12:24.128Z,0.90
2022-09-25T12:15:05.138Z,1.02
2022-09-25T12:17:51.026Z,0.63
2022-09-25T12:20:30.447Z,0.60
2022-09-25T12:23:06.215Z,0.65
2022-09-25T12:25:57.373Z,0.65
2022-09-25T12:29:06.044Z,0.80
2022-09-25T12:31:39.445Z,0.90
2022-09-25T12:34:19.261Z,1.13
2022-09-25T12:37:01.935Z,0.93
2022-09-25T12:39:42.218Z,1.13
2022-09-25T12:42:23.334Z,1.58
2022-09-25T12:44:57.984Z,1.25
2022-09-25T12:50:06.381Z,1.30
2022-09-25T12:52:40.667Z,1.60
2022-09-25T12:55:14.333Z,1.33
2022-09-25T12:57:47.603Z,1.33
2022-09-25T13:00:23.546Z,1.40
2022-09-25T13:03:00.795Z,1.20
2022-09-25T13:05:34.980Z,0.93
2022-09-25T13:08:10.360Z,1.25
2022-09-25T13:10:42.055Z,0.75
2022-09-25T13:13:19.755Z,1.17
2022-09-25T13:15:52.299Z,1.20
2022-09-25T13:18:21.710Z,1.05
2022-09-25T13:20:51.996Z,1.27
2022-09-25T13:23:25.402Z,0.88
2022-09-25T13:26:01.499Z,0.90
2022-09-25T13:28:33.072Z,1.35
2022-09-25T13:31:09.264Z,1.00
2022-09-25T13:33:45.450Z,0.82
2022-09-25T13:36:30.930Z,1.10
2022-09-25T13:39:20.775Z,1.00
2022-09-25T13:42:02.507Z,1.33
2022-09-25T13:44:44.849Z,1.13
2022-09-25T13:47:29.716Z,1.17
2022-09-25T13:52:40.662Z,1.00
2022-09-25T13:55:13.206Z,1.00
2022-09-25T13:57:58.217Z,0.80
2022-09-25T14:00:36.477Z,0.88
2022-09-25T14:03:03.765Z,0.98
2022-09-25T14:05:36.618Z,0.60
2022-09-25T14:08:09.292Z,0.80
2022-09-25T14:10:36.035Z,0.75
2022-09-25T14:13:06.994Z,1.20
2022-09-25T14:15:39.547Z,1.17
2022-09-25T14:18:19.781Z,1.60
2022-09-25T14:20:52.412Z,1.50
2022-09-25T14:23:29.046Z,1.67
2022-09-25T14:26:08.692Z,1.08
2022-09-25T14:28:51.001Z,1.00
2022-09-25T14:31:29.816Z,0.90
2022-09-25T14:34:25.925Z,1.00
2022-09-25T14:37:11.154Z,0.85
2022-09-25T14:40:07.290Z,0.90
2022-09-25T14:42:58.777Z,1.10
2022-09-25T14:45:58.511Z,0.60
2022-09-25T14:48:32.859Z,0.60
2022-09-25T14:51:14.296Z,0.85
2022-09-25T14:53:49.308Z,1.00
2022-09-25T14:56:15.847Z,1.52
2022-09-25T14:58:49.720Z,1.00
2022-09-25T15:01:34.821Z,0.85
2022-09-25T15:06:35.556Z,0.57
2022-09-25T15:09:17.916Z,1.00
2022-09-25T15:11:44.413Z,0.70
2022-09-25T15:14:16.461Z,0.57
2022-09-25T15:17:02.009Z,0.70
2022-09-25T15:19:33.662Z,1.02
2022-09-25T15:22:00.795Z,0.85
2022-09-25T15:24:35.190Z,0.70
2022-09-25T15:27:05.958Z,1.00
2022-09-25T15:29:43.584Z,0.70
2022-09-25T15:32:16.651Z,0.60
2022-09-25T15:34:43.496Z,0.77
2022-09-25T15:37:26.374Z,0.68
2022-09-25T15:39:53.545Z,0.60
2022-09-25T15:42:20.296Z,0.80
2022-09-25T15:44:48.120Z,2.60
2022-09-25T15:47:36.031Z,2.13
2022-09-25T15:50:04.353Z,1.13
2022-09-25T15:52:34.767Z,1.05
2022-09-25T15:55:14.659Z,1.10
2022-09-25T15:57:41.961Z,41.88
2022-09-25T16:00:42.698Z,18.95
2022-09-25T16:03:38.101Z,2.08
2022-09-25T16:06:06.393Z,1.63
2022-09-25T16:08:36.737Z,0.80
2022-09-25T16:11:26.517Z,0.70
2022-09-25T16:14:14.525Z,0.68
2022-09-25T16:16:47.543Z,0.88
2022-09-25T16:19:25.756Z,0.70
2022-09-25T16:21:52.929Z,0.80
2022-09-25T16:24:25.130Z,0.60
2022-09-25T16:27:02.719Z,0.60
2022-09-25T16:29:36.606Z,0.80
2022-09-25T16:32:06.544Z,0.60
2022-09-25T16:34:37.176Z,1.10
2022-09-25T16:37:06.394Z,0.63
2022-09-25T16:39:38.324Z,0.52
2022-09-25T16:42:27.657Z,0.77
2022-09-25T16:45:18.481Z,0.80
2022-09-25T16:47:49.156Z,0.70
2022-09-25T16:50:16.977Z,0.90
2022-09-25T16:52:43.949Z,0.90
2022-09-25T16:55:21.473Z,0.70
2022-09-25T16:57:48.897Z,1.10
2022-09-25T17:00:24.067Z,0.60
2022-09-25T17:02:51.235Z,0.63
2022-09-25T17:05:26.475Z,0.90
2022-09-25T17:07:55.158Z,0.55
2022-09-25T17:10:28.554Z,0.60
2022-09-25T17:12:58.455Z,0.60
2022-09-25T17:15:35.746Z,0.40
2022-09-25T17:18:07.042Z,0.47
2022-09-25T17:20:34.028Z,0.50
2022-09-25T17:23:00.606Z,0.47
2022-09-25T17:25:38.175Z,0.45
2022-09-25T17:28:06.399Z,0.50
2022-09-25T17:30:33.032Z,0.80
2022-09-25T17:32:59.509Z,0.40
2022-09-25T17:35:53.074Z,0.50
2022-09-25T17:38:19.906Z,0.65
2022-09-25T17:40:48.610Z,0.50
2022-09-25T17:43:15.751Z,0.60
2022-09-25T17:45:48.307Z,0.70
2022-09-25T17:48:25.194Z,0.50
2022-09-25T17:50:52.586Z,0.80
2022-09-25T17:53:21.469Z,0.85
2022-09-25T17:55:53.631Z,0.63
2022-09-25T17:58:22.133Z,0.60
2022-09-25T18:00:48.802Z,1.10
2022-09-25T18:03:16.169Z,1.52
2022-09-25T18:05:43.704Z,0.75
2022-09-25T18:08:11.297Z,0.55
2022-09-25T18:10:38.432Z,0.60
2022-09-25T18:13:06.893Z,0.50
2022-09-25T18:15:36.663Z,0.80
2022-09-25T18:18:03.436Z,0.60
2022-09-25T18:20:49.244Z,0.90
2022-09-25T18:23:15.593Z,0.90
2022-09-25T18:25:41.990Z,0.77
2022-09-25T18:28:09.321Z,0.82
2022-09-25T18:30:38.006Z,0.90
2022-09-25T18:33:04.703Z,0.80
2022-09-25T18:35:31.165Z,1.00
2022-09-25T18:37:58.854Z,0.70
2022-09-25T18:40:25.451Z,0.80
2022-09-25T18:42:53.005Z,0.90
2022-09-25T18:45:20.122Z,1.13
2022-09-25T18:47:46.730Z,1.63
2022-09-25T18:50:16.762Z,1.02
2022-09-25T18:52:46.907Z,0.93
2022-09-25T18:55:13.317Z,1.00
2022-09-25T18:57:40.740Z,1.10
2022-09-25T19:00:07.936Z,1.20
2022-09-25T19:02:38.757Z,1.30
2022-09-25T19:05:06.674Z,1.10
2022-09-25T19:07:33.038Z,0.82
2022-09-25T19:10:05.755Z,1.42
2022-09-25T19:12:32.118Z,1.05
2022-09-25T19:14:58.484Z,1.30
2022-09-25T19:17:25.502Z,1.05
2022-09-25T19:19:51.894Z,1.33
2022-09-25T19:22:20.237Z,1.40
2022-09-25T19:24:48.250Z,2.15
2022-09-25T19:27:16.811Z,7.50
2022-09-25T19:29:46.553Z,5.45
2022-09-25T19:32:15.332Z,2.83
2022-09-25T19:34:42.000Z,2.25
2022-09-25T19:37:08.964Z,2.63
2022-09-25T19:39:55.390Z,3.15
2022-09-25T19:42:27.312Z,2.10
2022-09-25T19:44:56.407Z,2.22
2022-09-25T19:47:23.565Z,1.60
2022-09-25T19:49:49.936Z,1.40
2022-09-25T19:52:17.051Z,1.58
2022-09-25T19:54:43.444Z,1.20
2022-09-25T19:57:10.387Z,1.58
2022-09-25T19:59:36.883Z,1.63
2022-09-25T20:02:03.346Z,1.60
2022-09-25T20:04:30.236Z,1.48
2022-09-25T20:06:58.733Z,1.63
2022-09-25T20:09:27.179Z,1.77
2022-09-25T20:11:54.043Z,1.45
2022-09-25T20:14:25.254Z,1.40
2022-09-25T20:16:55.722Z,1.50
2022-09-25T20:19:22.212Z,1.77
2022-09-25T20:21:49.662Z,2.03
2022-09-25T20:24:16.104Z,2.95
2022-09-25T20:26:42.541Z,3.65
2022-09-25T20:29:12.230Z,3.97
2022-09-25T20:31:40.966Z,3.97
2022-09-25T20:34:08.660Z,4.13
2022-09-25T20:36:37.700Z,3.50
2022-09-25T20:39:04.426Z,3.20
2022-09-25T20:41:31.149Z,2.42
2022-09-25T20:43:58.166Z,2.00
2022-09-25T20:46:26.271Z,2.40
2022-09-25T20:48:55.927Z,1.98
2022-09-25T20:51:26.962Z,1.67
2022-09-25T20:53:59.451Z,3.40
2022-09-25T20:56:27.200Z,2.88
2022-09-25T20:58:55.298Z,3.20
2022-09-25T21:01:24.489Z,2.13
2022-09-25T21:03:51.923Z,1.80
2022-09-25T21:06:21.184Z,1.98
2022-09-25T21:08:54.930Z,1.90
2022-09-25T21:11:22.245Z,1.60
2022-09-25T21:13:53.052Z,1.63
2022-09-25T21:16:21.251Z,1.27
2022-09-25T21:18:59.554Z,1.25
2022-09-25T21:21:26.883Z,1.30
2022-09-25T21:23:55.553Z,1.52
2022-09-25T21:26:25.107Z,1.67
2022-09-25T21:28:53.459Z,1.45
2022-09-25T21:31:22.629Z,1.25
2022-09-25T21:33:53.682Z,1.50
2022-09-25T21:36:21.725Z,1.20
2022-09-25T21:38:49.143Z,1.30
2022-09-25T21:41:17.855Z,1.35
2022-09-25T21:43:45.149Z,1.40
2022-09-25T21:46:18.145Z,1.33
2022-09-25T21:48:59.428Z,1.40
2022-09-25T21:51:29.290Z,1.27
2022-09-25T21:53:56.300Z,2.13
2022-09-25T21:56:25.577Z,1.60
2022-09-25T21:58:54.063Z,1.92
2022-09-25T22:01:24.013Z,1.80
2022-09-25T22:03:52.327Z,1.52
2022-09-25T22:06:21.355Z,2.05
2022-09-25T22:08:56.317Z,1.48
2022-09-25T22:11:23.434Z,1.85
2022-09-25T22:13:50.905Z,1.48
2022-09-25T22:16:21.226Z,1.48
2022-09-25T22:18:53.602Z,1.38
2022-09-25T22:21:22.539Z,1.60
2022-09-25T22:23:49.467Z,1.63
2022-09-25T22:26:18.299Z,1.40
2022-09-25T22:28:45.458Z,1.15
2022-09-25T22:31:15.032Z,2.05
2022-09-25T22:33:42.622Z,1.40
2022-09-25T22:36:10.229Z,1.40
2022-09-25T22:38:37.566Z,1.33
2022-09-25T22:41:12.598Z,1.45
2022-09-25T22:43:40.237Z,1.20
2022-09-25T22:46:08.601Z,1.25
2022-09-25T22:48:36.094Z,1.45
2022-09-25T22:51:06.166Z,1.42
2022-09-25T22:53:34.695Z,1.35
2022-09-25T22:56:28.649Z,1.45
2022-09-25T22:58:58.331Z,1.27
2022-09-25T23:01:43.949Z,1.58
2022-09-25T23:04:12.574Z,1.33
2022-09-25T23:06:39.650Z,1.45
2022-09-25T23:09:13.341Z,1.50
2022-09-25T23:11:40.644Z,1.30
2022-09-25T23:14:11.240Z,1.30
2022-09-25T23:16:38.346Z,1.67
2022-09-25T23:19:04.852Z,1.50
2022-09-25T23:21:31.902Z,1.80
2022-09-25T23:24:00.327Z,1.30
2022-09-25T23:26:27.361Z,1.73
2022-09-25T23:28:53.876Z,1.50
2022-09-25T23:31:21.195Z,1.70
2022-09-25T23:33:47.773Z,1.23
2022-09-25T23:36:23.053Z,1.52
2022-09-25T23:38:50.862Z,1.60
2022-09-25T23:41:20.618Z,1.90
2022-09-25T23:43:48.509Z,1.73
2022-09-25T23:46:17.219Z,1.42
2022-09-25T23:48:44.365Z,1.50
2022-09-25T23:51:12.075Z,1.67
2022-09-25T23:53:39.252Z,1.48
2022-09-25T23:56:11.671Z,1.60
2022-09-25T23:58:38.823Z,1.77
